Tiempo atmosférico en la estación meteorológica de Valdemorillo, Madrid (884 m.)



Fecha
DESCASC
Temp. máxima en grados centígrados (hora)
DESCASC
Temp. mínima en grados centígrados (hora)
DESCASC
Temp. media en grados centígrados
DESCASC
Racha de viento máxima en m/sg (hora)
DESCASC
Velocidad máxima media en intervalos de 10 minutos(hora)
DESCASC
Precipitaciones diarias en mm
DESCASC
Precipitaciones de 00:00 a 06:00 en mm
DESCASC
Precipitaciones de 06:00 a 12:00 en mm
DESCASC
Precipitaciones de 12:00 a 18:00 en mm
DESCASC
Precipitaciones de 18:00 a 24:00 en mm
DESCASC
22-04-2019 17 (16:30) 7.9 (07:40) 12.5 9.44 (16:30) 4.72 (17:00) 0.2 0 0 0 0.2
21-04-2019 12.9 (16:50) 7.3 (05:10) 10.1 9.72 (16:10) 5.56 (16:10) 0 0 0 0 0
20-04-2019 18.6 (17:10) 8.7 (00:30) 13.7 16.11 (10:20) 8.33 (12:00) 0.2 0 0 0 0.2
19-04-2019 10.1 (13:10) 7.4 (07:30) 8.8 8.89 (14:00) 5 (14:40) 10 3.2 0 2.6 4.2
18-04-2019 13.8 (00:00) 7.9 (00:00) 10.9 10.83 (02:30) 5.56 (02:30) 16 8 5 1.2 1.8
17-04-2019 22 (18:10) 9.3 (00:00) 15.7 12.78 (19:10) 6.67 (19:10) 0 0 0 0 0
16-04-2019 19.9 (17:50) 7.4 (00:00) 13.6 8.33 (15:00) 3.61 (16:30) 0 0 0 0 0
15-04-2019 22.1 (16:20) 10.9 (00:00) 16.5 12.78 (15:40) 7.22 (16:10) 0 0 0 0 0
14-04-2019 22.4 (17:30) 11.1 (00:00) 16.8 8.89 (14:30) 5 (18:30) 0 0 0 0 0
13-04-2019 20.7 (17:20) 5.4 (00:00) 13.1 7.78 (19:40) 4.72 (19:40) 0 0 0 0 0
12-04-2019 16.8 (17:40) 2.2 (00:00) 9.5 8.33 (20:10) 4.72 (15:10) 0 0 0 0 0
11-04-2019 13.8 (18:00) 5.7 (00:00) 9.8 10.56 (16:20) 5.56 (18:10) 0 0 0 0 0
10-04-2019 12.1 (17:00) 6.3 (00:00) 9.2 13.61 (10:40) 6.67 (04:00) 0 0 0 0 0
09-04-2019 12.6 (18:20) 2.6 (00:00) 7.6 13.89 (18:00) 7.5 (15:40) 1.6 0 0 1.4 0.2
08-04-2019 14.7 (17:30) 5.8 (00:00) 10.3 10 (22:20) 5.83 (22:20) 3.4 0.6 1.6 0 1.2
07-04-2019 11.4 (15:20) 3.2 (00:00) 7.3 11.39 (09:40) 6.94 (09:40) 2.2 0 0 0.4 1.8
06-04-2019 9.8 (16:20) 0.7 (00:00) 5.3 15 (19:50) 8.06 (15:00) 0.4 0 0 0.4 0
05-04-2019 8.7 (00:00) 2.8 (00:00) 5.7 11.67 (17:50) 6.39 (17:50) 8.8 0.6 3.2 4.8 0.2
04-04-2019 12.5 (15:20) 1.3 (00:00) 6.9 10.28 (09:30) 6.11 (09:20) 0 0 0 0 0
03-04-2019 12.6 (17:20) 7 (00:00) 9.8 14.44 (16:20) 7.78 (15:50) 0 0 0 0 0
02-04-2019 16 (14:40) 6.8 (00:00) 11.4 10.28 (16:20) 5.28 (16:10) 2 0 0.2 1.8 0
01-04-2019 16.3 (18:20) 7.3 (00:00) 11.8 5.83 (17:10) 3.33 (19:20) 0 0 0 0 0
31-03-2019 11.7 (17:20) 6.4 (00:00) 9 6.39 (18:40) 3.33 (18:30) 0.8 0 0 0.8 0
30-03-2019 17.4 (17:10) 3.3 (00:00) 10.3 5.83 (15:30) 2.78 (12:50) 0 0 0 0 0
29-03-2019 16.9 (16:20) 4.2 (00:00) 10.5 8.61 (16:20) 3.61 (17:40) 0 0 0 0 0
28-03-2019 17.5 (16:00) 4 (00:00) 10.8 7.5 (01:00) 4.17 (01:30) 0 0 0 0 0
27-03-2019 18.2 (16:30) 1.4 (00:00) 9.8 7.5 (00:40) 3.33 (23:50) 0 0 0 0 0
26-03-2019 19.8 (16:30) 3.8 (00:00) 11.8 10.83 (17:20) 5.83 (16:50) 0 0 0 0 0
25-03-2019 20.7 (16:00) 6.9 (00:00) 13.8 9.44 (21:20) 5.28 (21:20) 0 0 0 0 0

Gráficas

Temp. máximas Temp. mínimas Temp. medias Precipitaciones Rachas de viento máximas Velocidades máximas media en intervalos de 10 minutos

Datos horarios

Fecha y hora oficial Temperatura (ºC) Velocidad del viento (km/h) Dirección del viento Racha (km/h) Dirección de racha Precipitación (mm) Presión (hPa) Tendencia (hPa) Humedad (%)
2019-04-23 23:00:00 4.9 10 Sudoeste 17 Sudoeste 0 -- -- 89
2019-04-23 22:00:00 5.3 9 Oeste 18 Oeste 0 -- -- 85
2019-04-23 21:00:00 5.3 11 Oeste 36 Oeste 0.6 -- -- 89
2019-04-23 20:00:00 7 13 Oeste 33 Sudoeste 0 -- -- 77
2019-04-23 19:00:00 8.2 17 Sudoeste 43 Sudoeste 0 -- -- 74
2019-04-23 18:00:00 8.5 29 Sudoeste 46 Sudoeste 0 -- -- 74
2019-04-23 17:00:00 10 27 Sudoeste 46 Sudoeste 0 -- -- 65
2019-04-23 16:00:00 11 25 Oeste 40 Sudoeste 0 -- -- 57
2019-04-23 15:00:00 10.8 20 Sudoeste 40 Sudoeste 0 -- -- 58
2019-04-23 14:00:00 9 17 Sudoeste 34 Sudoeste 0 -- -- 63
2019-04-23 13:00:00 7.6 15 Sudoeste 32 Sudoeste 0 -- -- 83
2019-04-23 12:00:00 6.9 15 Sudoeste 28 Sudoeste 0 -- -- 87
2019-04-23 11:00:00 6.9 12 Sudoeste 26 Sudoeste 0 -- -- 96
2019-04-23 10:00:00 7.1 14 Sudoeste 23 Sudoeste 0 -- -- 96
2019-04-23 09:00:00 6.9 13 Sudoeste 26 Sudoeste 1 -- -- 93
2019-04-23 08:00:00 8.2 13 Sudoeste 27 Sur 1 -- -- 95
2019-04-23 07:00:00 9.4 8 Sudoeste 15 Sudoeste 0.2 -- -- 88
2019-04-23 06:00:00 10 7 Sudoeste 15 Sudoeste 0 -- -- 80
2019-04-23 05:00:00 10.4 8 Sudoeste 13 Sudoeste 0 -- -- 79
2019-04-23 04:00:00 10.9 6 Sudoeste 15 Sudoeste 0 -- -- 77
2019-04-23 03:00:00 11.3 9 Sudoeste 19 Sudoeste 0 -- -- 74
2019-04-23 02:00:00 11.4 9 Sudoeste 15 Sudoeste 0 -- -- 74
2019-04-23 01:00:00 11.8 6 Oeste 18 Oeste 0 -- -- 72
2019-04-23 00:00:00 11.5 4 Sudoeste 7 Sudoeste 0 -- -- 70
2019-04-22 23:00:00 11.5 0 Calma 9 Sudoeste 0 -- -- 70
2019-04-22 22:00:00 12.8 5 Oeste 15 Sudoeste 0 -- -- 64
2019-04-22 21:00:00 13.6 8 Sudoeste 18 Sudoeste 0 -- -- 62
2019-04-22 20:00:00 14.1 8 Sudoeste 19 Nordeste 0.2 -- -- 63
2019-04-22 19:00:00 13.6 8 Norte 22 Sudoeste 0 -- -- 69
2019-04-22 18:00:00 15.1 13 Sudoeste 27 Sudoeste 0 -- -- 57
2019-04-22 17:00:00 16.5 17 Sudoeste 34 Sudoeste 0 -- -- 54
2019-04-22 16:00:00 16.6 14 Sudoeste 25 Sudoeste 0 -- -- 53
2019-04-22 15:00:00 15.7 9 Oeste 22 Oeste 0 -- -- 54
2019-04-22 14:00:00 14.4 10 Sudoeste 22 Sudoeste 0 -- -- 56
2019-04-22 13:00:00 12.9 9 Sudoeste 17 Sudoeste 0 -- -- 61
2019-04-22 12:00:00 11.6 4 Sudoeste 9 Oeste 0 -- -- 64
2019-04-22 11:00:00 10.9 3 Nordeste 10 Noroeste 0 -- -- 63
2019-04-22 10:00:00 9.8 2 Nordeste 8 Nordeste 0 -- -- 73
2019-04-22 09:00:00 9.1 3 Nordeste 8 Nordeste 0 -- -- 75
2019-04-22 08:00:00 8 4 Nordeste 8 Nordeste 0 -- -- 80
2019-04-22 07:00:00 8.4 5 Nordeste 12 Nordeste 0 -- -- 78
2019-04-22 06:00:00 8.7 7 Nordeste 14 Este 0 -- -- 76
2019-04-22 05:00:00 8.6 6 Nordeste 12 Nordeste 0 -- -- 76
2019-04-22 04:00:00 8.5 8 Nordeste 15 Nordeste 0 -- -- 75
2019-04-22 03:00:00 8.7 10 Nordeste 22 Nordeste 0 -- -- 74
2019-04-22 02:00:00 9.3 9 Nordeste 21 Este 0 -- -- 72
2019-04-22 01:00:00 9.3 12 Nordeste 26 Nordeste 0 -- -- 71
2019-04-22 00:00:00 9.6 12 Nordeste 23 Este 0 -- -- 69
2019-04-21 23:00:00 9.7 14 Nordeste 23 Este 0 -- -- 67
2019-04-21 22:00:00 9.8 11 Nordeste 22 Nordeste 0 -- -- 67
2019-04-21 21:00:00 10 10 Nordeste 28 Nordeste 0 -- -- 67
2019-04-21 20:00:00 10.3 10 Nordeste 28 Este 0 -- -- 66
2019-04-21 19:00:00 11 12 Nordeste 31 Nordeste 0 -- -- 63
2019-04-21 18:00:00 12 14 Este 34 Nordeste 0 -- -- 62
2019-04-21 17:00:00 12.6 17 Este 35 Este 0 -- -- 60
2019-04-21 16:00:00 12.3 18 Este 34 Este 0 -- -- 62
2019-04-21 15:00:00 12.6 18 Este 33 Este 0 -- -- 61
2019-04-21 14:00:00 11.9 17 Este 32 Este 0 -- -- 63
2019-04-21 13:00:00 12.1 12 Este 31 Este 0 -- -- 64
2019-04-21 12:00:00 12 12 Este 31 Nordeste 0 -- -- 64
2019-04-21 11:00:00 10.6 13 Este 33 Este 0 -- -- 67
2019-04-21 10:00:00 10.1 18 Este 33 Nordeste 0 -- -- 68
2019-04-21 09:00:00 8.3 13 Este 25 Este 0 -- -- 74
2019-04-21 08:00:00 7.8 13 Nordeste 21 Este 0 -- -- 76
2019-04-21 07:00:00 7.8 10 Nordeste 21 Nordeste 0 -- -- 76
2019-04-21 06:00:00 7.5 7 Nordeste 17 Nordeste 0 -- -- 78
2019-04-21 05:00:00 7.4 5 Nordeste 12 Nordeste 0 -- -- 81
2019-04-21 04:00:00 7.8 7 Nordeste 21 Este 0 -- -- 78
2019-04-21 03:00:00 8.4 5 Nordeste 13 Este 0 -- -- 78
2019-04-21 02:00:00 8.8 3 Este 7 Sudeste 0 -- -- 87
2019-04-21 01:00:00 9.2 2 Este 4 Este 0 -- -- 86
2019-04-21 00:00:00 9.9 0 Calma 10 Sur 0 -- -- 85
2019-04-20 23:00:00 10.4 6 Sur 13 Sudeste 0.2 -- -- 84
2019-04-20 22:00:00 12.2 2 Noroeste 17 Sur 0 -- -- 74
2019-04-20 21:00:00 14.6 9 Sudeste 25 Este 0 -- -- 51
2019-04-20 20:00:00 15.4 12 Este 31 Sudeste 0 -- -- 49
2019-04-20 19:00:00 16.5 16 Este 39 Este 0 -- -- 47
2019-04-20 18:00:00 17.6 22 Este 41 Este 0 -- -- 44
2019-04-20 17:00:00 18.4 21 Nordeste 40 Este 0 -- -- 42
2019-04-20 16:00:00 17.1 16 Nordeste 45 Este 0 -- -- 44
2019-04-20 15:00:00 18 22 Nordeste 44 Nordeste 0 -- -- 41
2019-04-20 14:00:00 17.9 23 Nordeste 42 Este 0 -- -- 45
2019-04-20 13:00:00 15.5 21 Este 50 Este 0 -- -- 51
2019-04-20 12:00:00 14.3 30 Nordeste 55 Este 0 -- -- 48
2019-04-20 11:00:00 13.6 23 Nordeste 58 Nordeste 0 -- -- 50
2019-04-20 10:00:00 12.4 22 Nordeste 44 Nordeste 0 -- -- 58
2019-04-20 09:00:00 12 19 Nordeste 46 Nordeste 0 -- -- 61
2019-04-20 08:00:00 11.8 27 Nordeste 50 Nordeste 0 -- -- 60
2019-04-20 07:00:00 11.8 21 Nordeste 45 Nordeste 0 -- -- 59
2019-04-20 06:00:00 11.8 21 Nordeste 42 Nordeste 0 -- -- 59
2019-04-20 05:00:00 11.1 17 Nordeste 44 Nordeste 0 -- -- 65
2019-04-20 04:00:00 10.7 22 Nordeste 40 Nordeste 0 -- -- 68
2019-04-20 03:00:00 10.4 21 Nordeste 45 Nordeste 0 -- -- 72
2019-04-20 02:00:00 10 18 Nordeste 35 Nordeste 0 -- -- 76
2019-04-20 01:00:00 9.2 15 Nordeste 26 Este 0 -- -- 86
2019-04-20 00:00:00 8.9 5 Nordeste 13 Nordeste 0 -- -- 98
2019-04-19 23:00:00 8.9 4 Este 13 Este 0.2 -- -- 98
2019-04-19 22:00:00 8.9 5 Este 13 Este 0.6 -- -- 98
2019-04-19 21:00:00 8.9 6 Este 16 Este 0.6 -- -- 98
2019-04-19 20:00:00 9.1 8 Este 24 Este 1.2 -- -- 97
2019-04-19 19:00:00 8.9 4 Este 11 Sudeste 1.6 -- -- 96
2019-04-19 18:00:00 9.7 4 Este 15 Nordeste 0.6 -- -- 95
2019-04-19 17:00:00 9.3 6 Este 18 Nordeste 1.2 -- -- 95
2019-04-19 16:00:00 9.2 9 Nordeste 26 Nordeste 0.8 -- -- 93
2019-04-19 15:00:00 9.9 13 Este 32 Nordeste 0 -- -- 86
2019-04-19 14:00:00 9.7 16 Nordeste 32 Este 0 -- -- 85
2019-04-19 13:00:00 10 14 Nordeste 24 Nordeste 0 -- -- 84
2019-04-19 12:00:00 9.7 10 Este 21 Este 0 -- -- 88
2019-04-19 11:00:00 8.9 10 Este 30 Este 0 -- -- 91
2019-04-19 10:00:00 7.8 10 Este 25 Nordeste 0 -- -- 94
2019-04-19 09:00:00 7.6 11 Nordeste 25 Este 0 -- -- 94
2019-04-19 08:00:00 7.4 10 Nordeste 22 Nordeste 0 -- -- 96
2019-04-19 07:00:00 7.5 11 Nordeste 23 Este 0 -- -- 96
2019-04-19 06:00:00 7.5 12 Nordeste 22 Este 0.4 -- -- 96
2019-04-19 05:00:00 7.5 10 Este 18 Este 0 -- -- 97
2019-04-19 04:00:00 7.6 12 Nordeste 24 Nordeste 1.8 -- -- 97
2019-04-19 03:00:00 7.9 11 Nordeste 23 Nordeste 0.6 -- -- 96
2019-04-19 02:00:00 8.3 4 Nordeste 10 Nordeste 0.2 -- -- 95
2019-04-19 01:00:00 8.2 4 Nordeste 14 Nordeste 0.2 -- -- 95
2019-04-19 00:00:00 8.2 8 Nordeste 17 Este 0 -- -- 95
2019-04-18 23:00:00 8.7 4 Nordeste 18 Este 0.8 -- -- 94
2019-04-18 22:00:00 9.1 4 Nordeste 9 Nordeste 0.2 -- -- 93
2019-04-18 21:00:00 9.5 4 Este 8 Este 0.6 -- -- 91
2019-04-18 20:00:00 10.2 2 Este 9 Sudeste 0.2 -- -- 88
2019-04-18 19:00:00 10.5 5 Nordeste 12 Nordeste 0 -- -- 85
2019-04-18 18:00:00 9.5 7 Este 13 Este 0.2 -- -- 88
2019-04-18 17:00:00 9.4 4 Este 12 Este 0 -- -- 90
2019-04-18 16:00:00 9.3 6 Este 14 Este 0 -- -- 90
2019-04-18 15:00:00 9.2 8 Sudeste 17 Este 0.2 -- -- 90
2019-04-18 14:00:00 8.5 9 Este 19 Este 0 -- -- 94
2019-04-18 13:00:00 9 8 Este 24 Este 0.8 -- -- 96
2019-04-18 12:00:00 8.6 11 Este 23 Este 3 -- -- 97
2019-04-18 11:00:00 8.8 6 Este 13 Este 0.6 -- -- 96
2019-04-18 10:00:00 8.4 4 Este 17 Nordeste 0.2 -- -- 96
2019-04-18 09:00:00 8.3 4 Este 14 Nordeste 0.4 -- -- 96
2019-04-18 08:00:00 8.1 4 Este 9 Este 0.2 -- -- 96
2019-04-18 07:00:00 8.1 6 Este 12 Este 0.6 -- -- 95
2019-04-18 06:00:00 8.2 2 Sudeste 5 Noroeste 1 -- -- 93
2019-04-18 05:00:00 8.2 0 Calma 11 Sudoeste 1.4 -- -- 95
2019-04-18 04:00:00 8.3 7 Oeste 21 Oeste 2.2 -- -- 95
2019-04-18 03:00:00 8.8 14 Oeste 39 Sudoeste 2 -- -- 92
2019-04-18 02:00:00 10.4 9 Sudoeste 19 Sudoeste 0.4 -- -- 94
2019-04-18 01:00:00 11.5 7 Sudoeste 29 Sudoeste 1 -- -- 89
2019-04-18 00:00:00 13.8 7 Sudeste 11 Sudeste 0 -- -- 74
2019-04-17 23:00:00 14 5 Este 14 Este 0 -- -- 70
2019-04-17 22:00:00 14.5 5 Sudeste 23 Oeste 0 -- -- 68
2019-04-17 21:00:00 15.1 13 Oeste 29 Oeste 0 -- -- 63
2019-04-17 20:00:00 16.3 18 Oeste 46 Oeste 0 -- -- 60
2019-04-17 19:00:00 19.6 22 Sudoeste 40 Sur 0 -- -- 43
2019-04-17 18:00:00 21.9 14 Sur 31 Sudeste 0 -- -- 38
2019-04-17 17:00:00 20.9 12 Sudeste 24 Sur 0 -- -- 39
2019-04-17 16:00:00 19.9 13 Sudeste 25 Sudeste 0 -- -- 42
2019-04-17 15:00:00 19.3 10 Sudeste 29 Este 0 -- -- 44
2019-04-17 14:00:00 18.1 12 Sudeste 27 Sudeste 0 -- -- 52
2019-04-17 13:00:00 16 11 Este 24 Este 0 -- -- 57
2019-04-17 12:00:00 14.5 10 Este 23 Nordeste 0 -- -- 62
2019-04-17 11:00:00 12.6 10 Este 23 Nordeste 0 -- -- 70
2019-04-17 10:00:00 10.9 13 Nordeste 24 Nordeste 0 -- -- 75
2019-04-17 09:00:00 10 8 Este 17 Este 0 -- -- 78
2019-04-17 08:00:00 9.5 6 Este 16 Este 0 -- -- 80
2019-04-17 07:00:00 9.3 5 Este 14 Nordeste 0 -- -- 80
2019-04-17 06:00:00 9.8 6 Nordeste 12 Nordeste 0 -- -- 78
2019-04-17 05:00:00 10.4 6 Nordeste 16 Sudeste 0 -- -- 76
2019-04-17 04:00:00 11.2 4 Nordeste 18 Sudeste 0 -- -- 75
2019-04-17 03:00:00 11.9 5 Nordeste 27 Sudeste 0 -- -- 72
2019-04-17 02:00:00 12.9 13 Sudeste 28 Sudeste 0 -- -- 69
2019-04-17 01:00:00 13.8 12 Sudeste 25 Sudeste 0 -- -- 58
2019-04-17 00:00:00 14.5 5 Este 11 Este 0 -- -- 42
2019-04-16 23:00:00 14.8 4 Este 10 Este 0 -- -- 39
2019-04-16 22:00:00 15.3 5 Sudeste 9 Este 0 -- -- 38
2019-04-16 21:00:00 17 5 Sudeste 14 Sur 0 -- -- 35
2019-04-16 20:00:00 19.1 8 Sudeste 21 Sur 0 -- -- 32
2019-04-16 19:00:00 19.3 9 Sur 20 Sur 0 -- -- 31
2019-04-16 18:00:00 19.9 10 Sur 27 Sur 0 -- -- 30
2019-04-16 17:00:00 19.2 10 Sur 27 Sudoeste 0 -- -- 31
2019-04-16 16:00:00 18.9 8 Sudeste 21 Sudeste 0 -- -- 36
2019-04-16 15:00:00 17.9 9 Sudeste 30 Este 0 -- -- 42
2019-04-16 14:00:00 16.8 12 Sudeste 19 Sur 0 -- -- 45
2019-04-16 13:00:00 15.8 7 Sudeste 23 Sudoeste 0 -- -- 47
2019-04-16 12:00:00 14.6 7 Sur 16 Sur 0 -- -- 53
2019-04-16 11:00:00 13.2 5 Sudeste 13 Sur 0 -- -- 55
2019-04-16 10:00:00 11.6 7 Este 16 Nordeste 0 -- -- 65
2019-04-16 09:00:00 9.1 3 Norte 12 Nordeste 0 -- -- 68
2019-04-16 08:00:00 7.5 7 Nordeste 13 Nordeste 0 -- -- 78
2019-04-16 07:00:00 8.6 6 Norte 15 Noroeste 0 -- -- 68
2019-04-16 06:00:00 9 5 Norte 15 Noroeste 0 -- -- 67
2019-04-16 05:00:00 8.9 7 Noroeste 20 Noroeste 0 -- -- 72
2019-04-16 04:00:00 9.1 4 Noroeste 14 Noroeste 0 -- -- 70
2019-04-16 03:00:00 8.2 0 Calma 6 Oeste 0 -- -- 71
2019-04-16 02:00:00 9.8 3 Norte 12 Noroeste 0 -- -- 66
2019-04-16 01:00:00 11.2 5 Norte 23 Noroeste 0 -- -- 63
2019-04-16 00:00:00 11.4 7 Noroeste 27 Noroeste 0 -- -- 61
2019-04-15 23:00:00 11.6 11 Norte 28 Noroeste 0 -- -- 61
2019-04-15 22:00:00 12.1 9 Noroeste 32 Noroeste 0 -- -- 60
2019-04-15 21:00:00 13.1 12 Norte 32 Norte 0 -- -- 61
2019-04-15 20:00:00 15.7 14 Noroeste 35 Sudoeste 0 -- -- 53
2019-04-15 19:00:00 18.8 19 Oeste 40 Oeste 0 -- -- 46
2019-04-15 18:00:00 21 21 Oeste 42 Oeste 0 -- -- 43
2019-04-15 17:00:00 21.6 19 Sudoeste 46 Sudoeste 0 -- -- 46
2019-04-15 16:00:00 21.8 23 Sudoeste 46 Sudoeste 0 -- -- 38
2019-04-15 15:00:00 21.3 24 Sudoeste 43 Sudoeste 0 -- -- 43
2019-04-15 14:00:00 20.3 13 Sudoeste 23 Sudoeste 0 -- -- 56
2019-04-15 13:00:00 18 10 Sur 15 Sur 0 -- -- 64
2019-04-15 12:00:00 16.9 7 Sudeste 15 Sur 0 -- -- 67
2019-04-15 11:00:00 14.2 6 Este 14 Este 0 -- -- 76
2019-04-15 10:00:00 13.5 8 Este 15 Este 0 -- -- 77
2019-04-15 09:00:00 12.4 7 Este 11 Este 0 -- -- 81
2019-04-15 08:00:00 11.3 5 Este 9 Nordeste 0 -- -- 83
2019-04-15 07:00:00 10.9 6 Este 9 Nordeste 0 -- -- 83
2019-04-15 06:00:00 11.6 5 Nordeste 11 Nordeste 0 -- -- 80
2019-04-15 05:00:00 11.9 6 Nordeste 12 Nordeste 0 -- -- 79
2019-04-15 04:00:00 12.1 8 Nordeste 12 Nordeste 0 -- -- 78
2019-04-15 03:00:00 12.9 6 Nordeste 9 Nordeste 0 -- -- 73
2019-04-15 02:00:00 14.3 0 Calma 10 Nordeste 0 -- -- 67
2019-04-15 01:00:00 13.8 5 Noroeste 13 Nordeste 0 -- -- 70
2019-04-15 00:00:00 14.7 7 Nordeste 11 Nordeste 0 -- -- 69
2019-04-14 23:00:00 15 4 Este 8 Nordeste 0 -- -- 68
2019-04-14 22:00:00 16.3 4 Sudoeste 12 Sudoeste 0 -- -- 62
2019-04-14 21:00:00 17.8 7 Sudoeste 26 Sudoeste 0 -- -- 59
2019-04-14 20:00:00 20.4 14 Sudoeste 27 Sudoeste 0 -- -- 53
2019-04-14 19:00:00 21.4 15 Sudoeste 31 Sudoeste 0 -- -- 50
2019-04-14 18:00:00 22.3 13 Sudoeste 28 Sudoeste 0 -- -- 49
2019-04-14 17:00:00 22.2 14 Sudoeste 29 Oeste 0 -- -- 47
2019-04-14 16:00:00 21.6 15 Sudoeste 27 Sur 0 -- -- 45
2019-04-14 15:00:00 20.9 16 Sudoeste 32 Sudoeste 0 -- -- 49
2019-04-14 14:00:00 20.1 15 Sudoeste 29 Sudoeste 0 -- -- 52
2019-04-14 13:00:00 18.5 11 Sudoeste 21 Oeste 0 -- -- 56
2019-04-14 12:00:00 16.5 8 Sur 12 Sudeste 0 -- -- 60
2019-04-14 11:00:00 15.2 6 Sur 13 Sur 0 -- -- 64
2019-04-14 10:00:00 14.2 3 Sur 6 Sudeste 0 -- -- 69
2019-04-14 09:00:00 12 2 Nordeste 8 Norte 0 -- -- 76
2019-04-14 08:00:00 11.2 0 Calma 14 Sur 0 -- -- 74
2019-04-14 07:00:00 11.6 2 Norte 10 Nordeste 0 -- -- 71
2019-04-14 06:00:00 12.4 3 Norte 14 Norte 0 -- -- 67
2019-04-14 05:00:00 12.6 5 Oeste 17 Norte 0 -- -- 63
2019-04-14 04:00:00 11.9 4 Nordeste 9 Noroeste 0 -- -- 58
2019-04-14 03:00:00 12.6 7 Noroeste 12 Oeste 0 -- -- 53
2019-04-14 02:00:00 13.7 4 Nordeste 22 Noroeste 0 -- -- 48
2019-04-14 01:00:00 13.8 10 Noroeste 25 Noroeste 0 -- -- 43
2019-04-14 00:00:00 11.4 0 Calma 3 Noroeste 0 -- -- 39
2019-04-13 23:00:00 12.5 0 Calma 4 Noroeste 0 -- -- 36
2019-04-13 22:00:00 14.5 3 Oeste 14 Oeste 0 -- -- 40
2019-04-13 21:00:00 16 8 Sudoeste 26 Sudoeste 0 -- -- 33
2019-04-13 20:00:00 18.7 14 Sudoeste 28 Sudoeste 0 -- -- 27
2019-04-13 19:00:00 19.6 17 Sudoeste 27 Sudoeste 0 -- -- 26
2019-04-13 18:00:00 20.3 12 Sudoeste 23 Sudoeste 0 -- -- 21
2019-04-13 17:00:00 20.4 8 Sudoeste 23 Sur 0 -- -- 18
2019-04-13 16:00:00 19.4 9 Sur 22 Sudoeste 0 -- -- 18
2019-04-13 15:00:00 18.6 10 Sudoeste 18 Sudoeste 0 -- -- 20
2019-04-13 14:00:00 17.5 5 Sudoeste 17 Sur 0 -- -- 21
2019-04-13 13:00:00 16.1 3 Sudeste 14 Sur 0 -- -- 28
2019-04-13 12:00:00 14.5 7 Sudoeste 15 Sudoeste 0 -- -- 37
2019-04-13 11:00:00 12.4 3 Oeste 8 Noroeste 0 -- -- 33
2019-04-13 10:00:00 10.5 3 Nordeste 8 Nordeste 0 -- -- 41
2019-04-13 09:00:00 8 3 Nordeste 16 Nordeste 0 -- -- 46
2019-04-13 08:00:00 6.3 6 Nordeste 14 Nordeste 0 -- -- 51
2019-04-13 07:00:00 5.6 4 Nordeste 9 Nordeste 0 -- -- 52
2019-04-13 06:00:00 6.1 5 Nordeste 10 Norte 0 -- -- 49
2019-04-13 05:00:00 7 6 Nordeste 11 Nordeste 0 -- -- 49
2019-04-13 04:00:00 6.3 3 Nordeste 7 Sur 0 -- -- 50
2019-04-13 03:00:00 7.3 0 Calma 12 Noroeste 0 -- -- 48
2019-04-13 02:00:00 10.1 10 Norte 25 Norte 0 -- -- 45
2019-04-13 01:00:00 10.5 15 Norte 25 Norte 0 -- -- 44
2019-04-13 00:00:00 10.4 16 Nordeste 27 Norte 0 -- -- 45
2019-04-12 23:00:00 10.8 14 Nordeste 22 Norte 0 -- -- 45
2019-04-12 22:00:00 11.1 8 Norte 19 Norte 0 -- -- 43
2019-04-12 21:00:00 12.6 10 Norte 30 Nordeste 0 -- -- 42
2019-04-12 20:00:00 14.9 14 Norte 26 Norte 0 -- -- 31
2019-04-12 19:00:00 16 15 Norte 26 Norte 0 -- -- 29
2019-04-12 18:00:00 16.6 12 Norte 21 Norte 0 -- -- 31
2019-04-12 17:00:00 16.5 10 Norte 23 Norte 0 -- -- 33
2019-04-12 16:00:00 15.6 12 Norte 27 Nordeste 0 -- -- 30
2019-04-12 15:00:00 14.9 14 Norte 25 Norte 0 -- -- 35
2019-04-12 14:00:00 14.1 13 Norte 24 Norte 0 -- -- 36
2019-04-12 13:00:00 13.4 6 Noroeste 17 Sudeste 0 -- -- 42
2019-04-12 12:00:00 11.7 6 Sur 15 Sudeste 0 -- -- 54
2019-04-12 11:00:00 9.5 8 Sudeste 14 Sudeste 0 -- -- 60
2019-04-12 10:00:00 7.6 5 Sudoeste 12 Sur 0 -- -- 67
2019-04-12 09:00:00 5.1 3 Oeste 6 Sudoeste 0 -- -- 74
2019-04-12 08:00:00 2.2 2 Sur 5 Sur 0 -- -- 79
2019-04-12 07:00:00 2.5 0 Calma 5 Sudeste 0 -- -- 75
2019-04-12 06:00:00 4.1 4 Sur 9 Sur 0 -- -- 73
2019-04-12 05:00:00 3.7 2 Sudeste 6 Sudeste 0 -- -- 72
2019-04-12 04:00:00 4.8 3 Sudeste 6 Sudeste 0 -- -- 67
2019-04-12 03:00:00 4.9 3 Sudoeste 7 Este 0 -- -- 66
2019-04-12 02:00:00 6.2 6 Este 10 Nordeste 0 -- -- 60
2019-04-12 01:00:00 7 4 Este 16 Norte 0 -- -- 56
2019-04-12 00:00:00 8.1 7 Norte 18 Norte 0 -- -- 51
2019-04-11 23:00:00 8.7 10 Norte 19 Norte 0 -- -- 53
2019-04-11 22:00:00 9.5 13 Norte 20 Norte 0 -- -- 51
2019-04-11 21:00:00 10.4 11 Norte 29 Norte 0 -- -- 47
2019-04-11 20:00:00 12.2 18 Norte 31 Norte 0 -- -- 41
2019-04-11 19:00:00 13.1 18 Norte 37 Norte 0 -- -- 42
2019-04-11 18:00:00 13.8 14 Norte 33 Nordeste 0 -- -- 39
2019-04-11 17:00:00 13.6 14 Norte 38 Nordeste 0 -- -- 39
2019-04-11 16:00:00 13.1 19 Norte 36 Norte 0 -- -- 38
2019-04-11 15:00:00 13 17 Norte 31 Norte 0 -- -- 41
2019-04-11 14:00:00 12.4 4 Este 13 Este 0 -- -- 44
2019-04-11 13:00:00 12.2 8 Sur 18 Sur 0 -- -- 50
2019-04-11 12:00:00 11.4 5 Nordeste 18 Nordeste 0 -- -- 48
2019-04-11 11:00:00 9.4 12 Norte 22 Norte 0 -- -- 53
2019-04-11 10:00:00 8.4 10 Nordeste 20 Nordeste 0 -- -- 57
2019-04-11 09:00:00 6.8 6 Nordeste 21 Nordeste 0 -- -- 65
2019-04-11 08:00:00 5.7 15 Nordeste 30 Nordeste 0 -- -- 68
2019-04-11 07:00:00 5.8 17 Nordeste 28 Nordeste 0 -- -- 67
2019-04-11 06:00:00 6.3 12 Norte 24 Norte 0 -- -- 64
2019-04-11 05:00:00 6.7 5 Norte 22 Norte 0 -- -- 64
2019-04-11 04:00:00 6.2 7 Nordeste 18 Nordeste 0 -- -- 72
2019-04-11 03:00:00 6.7 9 Nordeste 23 Norte 0 -- -- 73
2019-04-11 02:00:00 7 13 Nordeste 27 Norte 0 -- -- 72
2019-04-11 01:00:00 7.3 17 Nordeste 29 Norte 0 -- -- 74
2019-04-11 00:00:00 8.2 14 Norte 25 Norte 0 -- -- 65
2019-04-10 23:00:00 8 14 Norte 27 Norte 0 -- -- 65
2019-04-10 22:00:00 8 15 Norte 24 Norte 0 -- -- 68
2019-04-10 21:00:00 8.7 12 Norte 27 Norte 0 -- -- 65
2019-04-10 20:00:00 9.9 8 Norte 23 Noroeste 0 -- -- 61
2019-04-10 19:00:00 10.6 9 Noroeste 35 Norte 0 -- -- 59
2019-04-10 18:00:00 9.9 17 Norte 32 Norte 0 -- -- 63
2019-04-10 17:00:00 12.1 13 Norte 31 Norte 0 -- -- 50
2019-04-10 16:00:00 11.2 14 Norte 33 Norte 0 -- -- 53
2019-04-10 15:00:00 9.5 14 Noroeste 29 Noroeste 0 -- -- 65
2019-04-10 14:00:00 9.3 14 Norte 31 Noroeste 0 -- -- 62
2019-04-10 13:00:00 9 15 Noroeste 32 Norte 0 -- -- 62
2019-04-10 12:00:00 8.5 10 Norte 31 Noroeste 0 -- -- 63
2019-04-10 11:00:00 8.3 16 Noroeste 49 Noroeste 0 -- -- 60
2019-04-10 10:00:00 7.1 15 Noroeste 45 Noroeste 0 -- -- 61
2019-04-10 09:00:00 6.8 21 Noroeste 39 Noroeste 0 -- -- 69
2019-04-10 08:00:00 6.5 14 Oeste 29 Oeste 0 -- -- 71
2019-04-10 07:00:00 6.6 12 Oeste 25 Oeste 0 -- -- 71
2019-04-10 06:00:00 6.5 13 Noroeste 27 Oeste 0 -- -- 71
2019-04-10 05:00:00 6.5 12 Noroeste 37 Noroeste 0 -- -- 71
2019-04-10 04:00:00 6.6 24 Noroeste 39 Noroeste 0 -- -- 69
2019-04-10 03:00:00 6.6 16 Noroeste 34 Oeste 0 -- -- 70
2019-04-10 02:00:00 7.3 18 Noroeste 44 Noroeste 0 -- -- 70
2019-04-10 01:00:00 6.8 16 Noroeste 31 Noroeste 0 -- -- 75
2019-04-10 00:00:00 6.3 15 Noroeste 27 Noroeste 0 -- -- 80
2019-04-09 23:00:00 7.1 17 Noroeste 30 Oeste 0.2 -- -- 78
2019-04-09 22:00:00 7.7 13 Oeste 27 Oeste 0 -- -- 68
2019-04-09 21:00:00 8.6 11 Oeste 29 Oeste 0 -- -- 62
2019-04-09 20:00:00 9.3 12 Noroeste 45 Oeste 0 -- -- 60
2019-04-09 19:00:00 11.4 15 Noroeste 46 Oeste 0 -- -- 48
2019-04-09 18:00:00 12.2 26 Noroeste 50 Noroeste 0 -- -- 41
2019-04-09 17:00:00 11.9 27 Noroeste 46 Oeste 0 -- -- 43
2019-04-09 16:00:00 10.4 19 Noroeste 46 Noroeste 0 -- -- 57
2019-04-09 15:00:00 7.9 12 Noroeste 43 Oeste 1.2 -- -- 82
2019-04-09 14:00:00 7.1 17 Oeste 33 Sudoeste 0.2 -- -- 89
2019-04-09 13:00:00 7.8 17 Sudoeste 28 Sudoeste 0 -- -- 79
2019-04-09 12:00:00 7.5 13 Oeste 26 Sudoeste 0 -- -- 83
2019-04-09 11:00:00 6.4 14 Sudoeste 25 Sudoeste 0 -- -- 88
2019-04-09 10:00:00 5.5 9 Sudoeste 14 Sudoeste 0 -- -- 94
2019-04-09 09:00:00 3.9 7 Oeste 13 Oeste 0 -- -- 96
2019-04-09 08:00:00 3.1 6 Sudoeste 10 Sudoeste 0 -- -- 97
2019-04-09 07:00:00 2.7 2 Sudoeste 13 Sudoeste 0 -- -- 94
2019-04-09 06:00:00 3 7 Sudoeste 12 Sudoeste 0 -- -- 92
2019-04-09 05:00:00 3.4 0 Calma 9 Sudoeste 0 -- -- 90
2019-04-09 04:00:00 3.8 3 Sudoeste 9 Sudoeste 0 -- -- 87
2019-04-09 03:00:00 4.6 5 Sudoeste 11 Sudoeste 0 -- -- 84
2019-04-09 02:00:00 5.6 3 Oeste 12 Oeste 0 -- -- 77
2019-04-09 01:00:00 6.1 3 Oeste 20 Oeste 0 -- -- 79
2019-04-09 00:00:00 6.5 6 Oeste 19 Noroeste 0 -- -- 78
2019-04-08 23:00:00 6.8 11 Noroeste 36 Noroeste 0.4 -- -- 81
2019-04-08 22:00:00 8 16 Noroeste 29 Noroeste 0.4 -- -- 74
2019-04-08 21:00:00 9.5 6 Norte 17 Noroeste 0 -- -- 71
2019-04-08 20:00:00 9.8 13 Noroeste 23 Norte 0.4 -- -- 68
2019-04-08 19:00:00 10.9 12 Norte 27 Sudoeste 0 -- -- 68
2019-04-08 18:00:00 13.6 12 Sudoeste 30 Oeste 0 -- -- 54
2019-04-08 17:00:00 13.8 12 Oeste 26 Oeste 0 -- -- 57
2019-04-08 16:00:00 13 13 Sudoeste 32 Oeste 0 -- -- 58
2019-04-08 15:00:00 12.7 16 Oeste 31 Oeste 0 -- -- 64
2019-04-08 14:00:00 10.3 17 Oeste 31 Oeste 0 -- -- 81
2019-04-08 13:00:00 10 13 Oeste 25 Sudoeste 0 -- -- 89
2019-04-08 12:00:00 9.8 11 Sudoeste 19 Sudoeste 0 -- -- 99
2019-04-08 11:00:00 8.5 11 Sudoeste 17 Sudoeste 0 -- -- 99
2019-04-08 10:00:00 7.7 7 Oeste 13 Sudoeste 0.4 -- -- 98
2019-04-08 09:00:00 6.8 0 Calma 7 Oeste 0.4 -- -- 98
2019-04-08 08:00:00 6.7 0 Calma 6 Sudoeste 0.4 -- -- 97
2019-04-08 07:00:00 6.5 0 Calma 3 Norte 0.4 -- -- 97
2019-04-08 06:00:00 6.2 0 Calma 4 Nordeste 0.2 -- -- 97
2019-04-08 05:00:00 6 0 Calma 8 Norte 0 -- -- 97
2019-04-08 04:00:00 6 3 Norte 7 Nordeste 0.2 -- -- 97
2019-04-08 03:00:00 5.8 2 Norte 6 Nordeste 0.2 -- -- 96
2019-04-08 02:00:00 6 3 Norte 5 Norte 0 -- -- 95
2019-04-08 01:00:00 6.2 2 Nordeste 4 Nordeste 0 -- -- 93
2019-04-08 00:00:00 6.1 3 Nordeste 6 Norte 0.4 -- -- 93
2019-04-07 23:00:00 6.8 0 Calma 3 Noroeste 0 -- -- 90
2019-04-07 22:00:00 6.7 0 Calma 3 Sudoeste 0.4 -- -- 89
2019-04-07 21:00:00 6.7 0 Calma 9 Sudoeste 0.2 -- -- 89
2019-04-07 20:00:00 7.3 4 Oeste 14 Oeste 0.6 -- -- 87
2019-04-07 19:00:00 8.2 5 Noroeste 17 Oeste 0.2 -- -- 79
2019-04-07 18:00:00 8.7 12 Oeste 23 Oeste 0.4 -- -- 72
2019-04-07 17:00:00 9.4 11 Sudoeste 31 Sudoeste 0 -- -- 69
2019-04-07 16:00:00 11.1 12 Sudoeste 24 Oeste 0 -- -- 50
2019-04-07 15:00:00 11.1 14 Oeste 27 Oeste 0 -- -- 40
2019-04-07 14:00:00 10 14 Noroeste 26 Noroeste 0 -- -- 45
2019-04-07 13:00:00 9.3 13 Noroeste 29 Noroeste 0 -- -- 49
2019-04-07 12:00:00 7.4 5 Noroeste 34 Noroeste 0 -- -- 55
2019-04-07 11:00:00 6.3 10 Noroeste 32 Oeste 0 -- -- 57
2019-04-07 10:00:00 5 21 Oeste 41 Oeste 0 -- -- 67
2019-04-07 09:00:00 4.4 11 Oeste 20 Sudoeste 0 -- -- 72
2019-04-07 08:00:00 4 8 Oeste 18 Sudoeste 0 -- -- 71
2019-04-07 07:00:00 3.9 6 Sudoeste 24 Oeste 0 -- -- 74
2019-04-07 06:00:00 3.7 6 Oeste 17 Noroeste 0 -- -- 77
2019-04-07 05:00:00 3.4 8 Sudoeste 16 Sudoeste 0 -- -- 88
2019-04-07 04:00:00 3.2 3 Sur 12 Sudoeste 0 -- -- 87
2019-04-07 03:00:00 3.5 5 Sudoeste 22 Sudoeste 0 -- -- 79
2019-04-07 02:00:00 3.8 6 Sudoeste 15 Sudoeste 0 -- -- 84
2019-04-07 01:00:00 4 9 Sudoeste 20 Sudoeste 0 -- -- 83
2019-04-07 00:00:00 4.7 9 Sudoeste 26 Sudoeste 0 -- -- 74
2019-04-06 23:00:00 5.3 12 Oeste 21 Oeste 0 -- -- 68
2019-04-06 22:00:00 5.5 15 Oeste 33 Oeste 0 -- -- 67
2019-04-06 21:00:00 6.3 14 Oeste 40 Oeste 0 -- -- 63
2019-04-06 20:00:00 7 18 Oeste 54 Noroeste 0 -- -- 63
2019-04-06 19:00:00 7.9 22 Noroeste 49 Noroeste 0 -- -- 57
2019-04-06 18:00:00 7.8 13 Oeste 32 Noroeste 0 -- -- 68
2019-04-06 17:00:00 7.1 24 Oeste 37 Sudoeste 0.4 -- -- 71
2019-04-06 16:00:00 8.5 19 Sudoeste 49 Sudoeste 0 -- -- 68
2019-04-06 15:00:00 7.8 29 Sudoeste 46 Sudoeste 0 -- -- 74
2019-04-06 14:00:00 8.3 22 Sudoeste 38 Sudoeste 0 -- -- 73
2019-04-06 13:00:00 7.2 18 Sudoeste 31 Sudoeste 0 -- -- 75
2019-04-06 12:00:00 4.4 13 Sudoeste 30 Sudoeste 0 -- -- 95
2019-04-06 11:00:00 3.5 11 Oeste 29 Sudoeste 0 -- -- 93
2019-04-06 10:00:00 2.4 12 Sudoeste 19 Sudoeste 0 -- -- 97
2019-04-06 09:00:00 1.4 10 Sudoeste 19 Sudoeste 0 -- -- 98
2019-04-06 08:00:00 1 8 Sudoeste 14 Sudoeste 0 -- -- 98
2019-04-06 07:00:00 0.7 5 Sudoeste 12 Sudoeste 0 -- -- 97
2019-04-06 06:00:00 1.1 6 Sudoeste 17 Sudoeste 0 -- -- 95
2019-04-06 05:00:00 1.9 4 Sudoeste 19 Sudoeste 0 -- -- 83
2019-04-06 04:00:00 2.2 8 Sudoeste 22 Noroeste 0 -- -- 86
2019-04-06 03:00:00 2.2 9 Oeste 18 Oeste 0 -- -- 87
2019-04-06 02:00:00 2.1 6 Oeste 14 Sudoeste 0 -- -- 96
2019-04-06 01:00:00 2.3 5 Sudoeste 15 Sudoeste 0 -- -- 95
2019-04-06 00:00:00 2.8 5 Oeste 15 Oeste 0 -- -- 90
2019-04-05 23:00:00 2.9 8 Oeste 17 Sudoeste 0 -- -- 89
2019-04-05 22:00:00 3.9 8 Oeste 17 Oeste 0 -- -- 82
2019-04-05 21:00:00 4.2 12 Oeste 22 Oeste 0 -- -- 84
2019-04-05 20:00:00 5.7 13 Oeste 27 Oeste 0 -- -- 76
2019-04-05 19:00:00 4 9 Noroeste 32 Oeste 0.2 -- -- 89
2019-04-05 18:00:00 3.4 19 Oeste 42 Noroeste 0.4 -- -- 87
2019-04-05 17:00:00 5.3 13 Oeste 24 Sudoeste 0.4 -- -- 89
2019-04-05 16:00:00 5.7 11 Sudoeste 21 Sudoeste 0 -- -- 88
2019-04-05 15:00:00 4.7 9 Sudoeste 26 Sudoeste 0.8 -- -- 94
2019-04-05 14:00:00 3.2 8 Oeste 34 Sudoeste 3 -- -- 95
2019-04-05 13:00:00 5.5 13 Sudoeste 27 Sudoeste 0.2 -- -- 89
2019-04-05 12:00:00 4.9 12 Sudoeste 21 Sur 0 -- -- 96
2019-04-05 11:00:00 4.2 11 Sudoeste 22 Sudoeste 0.8 -- -- 98
2019-04-05 10:00:00 3.9 15 Sudoeste 27 Sudoeste 1.6 -- -- 97
2019-04-05 09:00:00 3.9 6 Sudoeste 13 Sudoeste 0.6 -- -- 97
2019-04-05 08:00:00 3.8 5 Sudoeste 19 Sudoeste 0.2 -- -- 96
2019-04-05 07:00:00 3.6 10 Sudoeste 21 Sudoeste 0 -- -- 95
2019-04-05 06:00:00 3.6 15 Sudoeste 26 Sudoeste 0 -- -- 93
2019-04-05 05:00:00 3.5 12 Sudoeste 23 Sudoeste 0.2 -- -- 94
2019-04-05 04:00:00 4 12 Sudoeste 30 Sudoeste 0.2 -- -- 90
2019-04-05 03:00:00 4.4 17 Sudoeste 31 Sudoeste 0.2 -- -- 86
2019-04-05 02:00:00 5.3 15 Oeste 40 Oeste 0 -- -- 79
2019-04-05 01:00:00 8 20 Oeste 37 Sudoeste 0 -- -- 49
2019-04-05 00:00:00 8.7 10 Sudoeste 21 Sudoeste 0 -- -- 41
2019-04-04 23:00:00 9.2 12 Sudoeste 21 Sudoeste 0 -- -- 40
2019-04-04 22:00:00 9.6 10 Sudoeste 21 Sudoeste 0 -- -- 38
2019-04-04 21:00:00 10 11 Sudoeste 24 Oeste 0 -- -- 34
2019-04-04 20:00:00 10.7 13 Oeste 28 Oeste 0 -- -- 30
2019-04-04 19:00:00 11.9 13 Oeste 30 Sudoeste 0 -- -- 29
2019-04-04 18:00:00 11.8 14 Sudoeste 26 Sudoeste 0 -- -- 29
2019-04-04 17:00:00 11.6 17 Sudoeste 34 Sudoeste 0 -- -- 29
2019-04-04 16:00:00 11.8 14 Sudoeste 34 Sudoeste 0 -- -- 31
2019-04-04 15:00:00 12.1 13 Oeste 32 Oeste 0 -- -- 28
2019-04-04 14:00:00 10.7 10 Oeste 24 Oeste 0 -- -- 30
2019-04-04 13:00:00 9.5 6 Oeste 29 Oeste 0 -- -- 32
2019-04-04 12:00:00 8.4 7 Sur 13 Sudoeste 0 -- -- 39
2019-04-04 11:00:00 5.6 5 Norte 24 Norte 0 -- -- 46
2019-04-04 10:00:00 4 4 Sudoeste 37 Norte 0 -- -- 51
2019-04-04 09:00:00 2.3 19 Norte 36 Norte 0 -- -- 58
2019-04-04 08:00:00 1.3 12 Norte 27 Norte 0 -- -- 64
2019-04-04 07:00:00 1.7 19 Norte 35 Norte 0 -- -- 63
2019-04-04 06:00:00 2.1 21 Norte 36 Norte 0 -- -- 59
2019-04-04 05:00:00 2.7 11 Norte 28 Norte 0 -- -- 57
2019-04-04 04:00:00 3.2 18 Norte 29 Norte 0 -- -- 55
2019-04-04 03:00:00 4.1 13 Norte 28 Noroeste 0 -- -- 51
2019-04-04 02:00:00 4.7 18 Norte 34 Norte 0 -- -- 49
2019-04-04 01:00:00 5.8 14 Norte 34 Noroeste 0 -- -- 46
2019-04-04 00:00:00 7 13 Norte 31 Noroeste 0 -- -- 41
2019-04-03 23:00:00 7.3 11 Norte 29 Noroeste 0 -- -- 43
2019-04-03 22:00:00 8.3 14 Norte 29 Norte 0 -- -- 40
2019-04-03 21:00:00 9.3 10 Norte 24 Noroeste 0 -- -- 36
2019-04-03 20:00:00 10.8 15 Noroeste 37 Noroeste 0 -- -- 33
2019-04-03 19:00:00 11.4 16 Noroeste 43 Noroeste 0 -- -- 36
2019-04-03 18:00:00 11.7 23 Noroeste 41 Nordeste 0 -- -- 33
2019-04-03 17:00:00 11.8 23 Noroeste 52 Noroeste 0 -- -- 35
2019-04-03 16:00:00 11.3 25 Noroeste 48 Noroeste 0 -- -- 39
2019-04-03 15:00:00 11.3 24 Noroeste 49 Norte 0 -- -- 43
2019-04-03 14:00:00 10.7 20 Norte 42 Noroeste 0 -- -- 50
2019-04-03 13:00:00 11.1 18 Noroeste 39 Norte 0 -- -- 49
2019-04-03 12:00:00 11.2 18 Noroeste 33 Noroeste 0 -- -- 52
2019-04-03 11:00:00 10.7 8 Noroeste 18 Noroeste 0 -- -- 56
2019-04-03 10:00:00 9.9 11 Norte 20 Norte 0 -- -- 58
2019-04-03 09:00:00 8.3 5 Oeste 18 Noroeste 0 -- -- 64
2019-04-03 08:00:00 7.3 2 Nordeste 11 Oeste 0 -- -- 64
2019-04-03 07:00:00 8.1 3 Noroeste 12 Noroeste 0 -- -- 60
2019-04-03 06:00:00 9.2 6 Norte 16 Norte 0 -- -- 55
2019-04-03 05:00:00 9.3 7 Noroeste 23 Noroeste 0 -- -- 53
2019-04-03 04:00:00 8.4 3 Norte 9 Norte 0 -- -- 56
2019-04-03 03:00:00 9.4 4 Noroeste 17 Noroeste 0 -- -- 50
2019-04-03 02:00:00 9.2 6 Noroeste 13 Noroeste 0 -- -- 50
2019-04-03 01:00:00 9.8 4 Oeste 13 Oeste 0 -- -- 47
2019-04-03 00:00:00 10.8 6 Oeste 12 Noroeste 0 -- -- 55
2019-04-02 23:00:00 10.1 3 Noroeste 8 Oeste 0 -- -- 73
2019-04-02 22:00:00 11.2 8 Sudoeste 13 Oeste 0 -- -- 70
2019-04-02 21:00:00 12.1 4 Oeste 8 Oeste 0 -- -- 68
2019-04-02 20:00:00 13.8 5 Oeste 15 Oeste 0 -- -- 62
2019-04-02 19:00:00 15.1 9 Oeste 23 Oeste 0 -- -- 54
2019-04-02 18:00:00 14.9 11 Sudoeste 18 Oeste 0 -- -- 60
2019-04-02 17:00:00 13.3 6 Sur 37 Noroeste 1.6 -- -- 59
2019-04-02 16:00:00 12.5 17 Noroeste 34 Noroeste 0.2 -- -- 69
2019-04-02 15:00:00 14.4 9 Sudoeste 25 Sudoeste 0 -- -- 52
2019-04-02 14:00:00 14.6 11 Sur 19 Sudoeste 0 -- -- 56
2019-04-02 13:00:00 13.7 2 Noroeste 11 Oeste 0 -- -- 60
2019-04-02 12:00:00 11.3 2 Sudoeste 4 Oeste 0.2 -- -- 72
2019-04-02 11:00:00 10.4 0 Calma 10 Sudeste 0 -- -- 78
2019-04-02 10:00:00 9.9 5 Sudeste 12 Este 0 -- -- 79
2019-04-02 09:00:00 8.5 6 Este 10 Este 0 -- -- 78
2019-04-02 08:00:00 8.2 5 Este 9 Este 0 -- -- 77
2019-04-02 07:00:00 7.7 4 Sudeste 6 Sudeste 0 -- -- 74
2019-04-02 06:00:00 7 2 Sur 4 Sudoeste 0 -- -- 76
2019-04-02 05:00:00 7.1 4 Sudoeste 5 Sudoeste 0 -- -- 78
2019-04-02 04:00:00 7.3 2 Norte 4 Oeste 0 -- -- 78
2019-04-02 03:00:00 7.9 0 Calma 5 Oeste 0 -- -- 74
2019-04-02 02:00:00 8.7 0 Calma 4 Noroeste 0 -- -- 72
2019-04-02 01:00:00 10 0 Calma 8 Sudoeste 0 -- -- 70
2019-04-02 00:00:00 9.2 4 Sudoeste 8 Sudoeste 0 -- -- 72
2019-04-01 23:00:00 11 2 Sudoeste 10 Nordeste 0 -- -- 65
2019-04-01 22:00:00 12.5 4 Nordeste 9 Nordeste 0 -- -- 61
2019-04-01 21:00:00 13.3 5 Noroeste 17 Noroeste 0 -- -- 57
2019-04-01 20:00:00 14.3 12 Oeste 20 Noroeste 0 -- -- 54
2019-04-01 19:00:00 14.8 8 Sudoeste 19 Sudoeste 0 -- -- 53
2019-04-01 18:00:00 15.9 9 Sur 21 Sur 0 -- -- 50
2019-04-01 17:00:00 15.5 8 Sur 18 Sur 0 -- -- 52
2019-04-01 16:00:00 15.1 8 Sur 15 Sur 0 -- -- 53
2019-04-01 15:00:00 13 2 Sudoeste 8 Noroeste 0 -- -- 61
2019-04-01 14:00:00 12 2 Sudoeste 9 Este 0 -- -- 63
2019-04-01 13:00:00 12.4 7 Sudeste 17 Sudeste 0 -- -- 66
2019-04-01 12:00:00 11.4 8 Este 15 Sudeste 0 -- -- 72
2019-04-01 11:00:00 9.8 5 Este 14 Nordeste 0 -- -- 79
2019-04-01 10:00:00 9 7 Este 13 Este 0 -- -- 85
2019-04-01 09:00:00 7.4 0 Calma 7 Este 0 -- -- 93
2019-04-01 08:00:00 7.7 3 Este 9 Norte 0 -- -- 91
2019-04-01 07:00:00 7.7 5 Nordeste 10 Nordeste 0 -- -- 91
2019-04-01 06:00:00 7.5 4 Este 10 Este 0 -- -- 91
2019-04-01 05:00:00 7.7 4 Este 10 Este 0 -- -- 89
2019-04-01 04:00:00 7.8 6 Este 12 Nordeste 0 -- -- 88
2019-04-01 03:00:00 7.7 6 Este 10 Este 0 -- -- 89
2019-04-01 02:00:00 7.7 5 Nordeste 11 Este 0 -- -- 90
2019-04-01 01:00:00 7.8 6 Este 14 Nordeste 0 -- -- 89
2019-04-01 00:00:00 7.9 10 Nordeste 20 Nordeste 0 -- -- 91
2019-03-31 23:00:00 8.8 10 Nordeste 18 Nordeste 0 -- -- 87
2019-03-31 22:00:00 9.3 6 Este 18 Este 0 -- -- 81
2019-03-31 21:00:00 9.5 10 Nordeste 18 Nordeste 0 -- -- 80
2019-03-31 20:00:00 10 8 Este 21 Este 0 -- -- 77
2019-03-31 19:00:00 10.2 10 Este 23 Sudeste 0 -- -- 74
2019-03-31 18:00:00 11.5 11 Este 22 Sudeste 0 -- -- 69
2019-03-31 17:00:00 11 7 Este 19 Sudeste 0 -- -- 74
2019-03-31 16:00:00 9.8 9 Este 18 Este 0.2 -- -- 80
2019-03-31 15:00:00 9.7 8 Este 19 Este 0.6 -- -- 77
2019-03-31 14:00:00 11.3 8 Este 16 Sudeste 0 -- -- 60
2019-03-31 13:00:00 11.2 8 Sudeste 17 Nordeste 0 -- -- 54
2019-03-31 12:00:00 10.9 5 Este 13 Este 0 -- -- 57
2019-03-31 11:00:00 10.3 5 Este 15 Este 0 -- -- 61
2019-03-31 10:00:00 8.9 6 Nordeste 12 Nordeste 0 -- -- 67
2019-03-31 09:00:00 7.4 4 Nordeste 9 Nordeste 0 -- -- 72
2019-03-31 08:00:00 6.4 5 Nordeste 9 Nordeste 0 -- -- 73
2019-03-31 07:00:00 6.8 5 Nordeste 10 Nordeste 0 -- -- 72
2019-03-31 06:00:00 7.5 4 Nordeste 9 Nordeste 0 -- -- 67
2019-03-31 05:00:00 7.5 4 Nordeste 8 Nordeste 0 -- -- 66
2019-03-31 03:00:00 8.2 3 Nordeste 11 Nordeste 0 -- -- 61
2019-03-31 01:00:00 9.5 4 Nordeste 15 Sudeste 0 -- -- 53
2019-03-31 00:00:00 10.4 6 Sudeste 17 Nordeste 0 -- -- 46
2019-03-30 23:00:00 11.2 8 Nordeste 13 Norte 0 -- -- 38
2019-03-30 22:00:00 11.5 6 Nordeste 10 Nordeste 0 -- -- 38
2019-03-30 21:00:00 11.9 2 Nordeste -- -- 0 -- -- 35
2019-03-30 20:00:00 14.4 0 Calma 6 Sur 0 -- -- 32
2019-03-30 19:00:00 15.5 5 Sur 17 Sudeste 0 -- -- 29
2019-03-30 18:00:00 17.1 5 Sur 19 Sudeste 0 -- -- 26
2019-03-30 17:00:00 17.2 8 Sur 18 Sudeste 0 -- -- 28
2019-03-30 16:00:00 16.9 6 Este 21 Sur 0 -- -- 29
2019-03-30 15:00:00 16.3 8 Sudeste 19 Sudeste 0 -- -- 33
2019-03-30 14:00:00 15.5 7 Sudeste 18 Sur 0 -- -- 37
2019-03-30 13:00:00 14.1 8 Sudeste 19 Sudeste 0 -- -- 39
2019-03-30 12:00:00 12.6 6 Sudeste 18 Sudeste 0 -- -- 43
2019-03-30 11:00:00 11.1 8 Este 18 Este 0 -- -- 44
2019-03-30 10:00:00 9.7 8 Este 18 Nordeste 0 -- -- 47
2019-03-30 09:00:00 7.2 8 Nordeste 12 Nordeste 0 -- -- 58
2019-03-30 08:00:00 4.5 5 Nordeste 9 Nordeste 0 -- -- 68
2019-03-30 07:00:00 3.5 4 Nordeste 13 Nordeste 0 -- -- 72
2019-03-30 06:00:00 3.7 9 Nordeste 16 Nordeste 0 -- -- 75
2019-03-30 05:00:00 4.3 8 Nordeste 14 Nordeste 0 -- -- 70
2019-03-30 04:00:00 5 5 Nordeste 10 Norte 0 -- -- 70
2019-03-30 03:00:00 5.6 3 Nordeste 9 Nordeste 0 -- -- 68
2019-03-30 02:00:00 6.6 0 Calma 12 Este 0 -- -- 61
2019-03-30 01:00:00 7.9 5 Sudeste 15 Sudeste 0 -- -- 59
2019-03-30 00:00:00 8.9 6 Sudeste 14 Este 0 -- -- 54
2019-03-29 23:00:00 9.7 5 Sudeste 18 Sudeste 0 -- -- 47
2019-03-29 22:00:00 9.8 4 Este 11 Este 0 -- -- 43
2019-03-29 21:00:00 10.3 3 Nordeste 13 Sudeste 0 -- -- 41
2019-03-29 20:00:00 12.3 7 Sudeste 15 Sudeste 0 -- -- 37
2019-03-29 19:00:00 14.9 8 Sudeste 23 Sudeste 0 -- -- 30
2019-03-29 18:00:00 16.3 8 Sudeste 23 Sudeste 0 -- -- 27
2019-03-29 17:00:00 16.6 9 Este 31 Sudeste 0 -- -- 25
2019-03-29 16:00:00 16.6 12 Sudeste 22 Nordeste 0 -- -- 26
2019-03-29 15:00:00 15.8 9 Este 25 Sudeste 0 -- -- 27
2019-03-29 14:00:00 15 11 Sudeste 24 Sudeste 0 -- -- 30
2019-03-29 13:00:00 13.9 12 Sudeste 23 Sudeste 0 -- -- 31
2019-03-29 12:00:00 13 12 Sur 24 Sur 0 -- -- 33
2019-03-29 11:00:00 11.8 9 Sudeste 22 Este 0 -- -- 36
2019-03-29 10:00:00 10.8 8 Sudeste 19 Este 0 -- -- 36
2019-03-29 09:00:00 8.6 6 Nordeste 11 Nordeste 0 -- -- 41
2019-03-29 08:00:00 5.5 6 Nordeste 12 Nordeste 0 -- -- 52
2019-03-29 07:00:00 4.6 6 Nordeste 13 Nordeste 0 -- -- 52
2019-03-29 06:00:00 5.3 8 Nordeste 15 Nordeste 0 -- -- 49
2019-03-29 05:00:00 5.3 6 Nordeste 13 Nordeste 0 -- -- 48
2019-03-29 04:00:00 5.5 5 Nordeste 10 Nordeste 0 -- -- 46
2019-03-29 03:00:00 5.7 5 Nordeste 11 Nordeste 0 -- -- 47
2019-03-29 02:00:00 7.9 4 Este 16 Sudeste 0 -- -- 39
2019-03-29 01:00:00 7.9 5 Sudeste 11 Sudeste 0 -- -- 37
2019-03-29 00:00:00 7.6 7 Este 9 Nordeste 0 -- -- 39
2019-03-28 23:00:00 8.8 6 Nordeste 9 Nordeste 0 -- -- 36
2019-03-28 22:00:00 9.1 4 Nordeste 6 Nordeste 0 -- -- 36
2019-03-28 21:00:00 10.3 0 Calma 3 Sur 0 -- -- 31
2019-03-28 20:00:00 12.8 2 Sur 6 Sudeste 0 -- -- 29
2019-03-28 19:00:00 16.7 4 Sur 14 Sur 0 -- -- 22
2019-03-28 18:00:00 17.4 4 Sur 14 Sudeste 0 -- -- 22
2019-03-28 17:00:00 17.3 5 Sudoeste 17 Sudoeste 0 -- -- 21
2019-03-28 16:00:00 17.5 10 Sudoeste 18 Sudoeste 0 -- -- 22
2019-03-28 15:00:00 16.7 6 Sur 16 Sudoeste 0 -- -- 23
2019-03-28 14:00:00 15.7 7 Sur 17 Sudoeste 0 -- -- 23
2019-03-28 13:00:00 14.6 6 Sudeste 17 Sudoeste 0 -- -- 23
2019-03-28 12:00:00 13.8 4 Sudeste 15 Sur 0 -- -- 27
2019-03-28 11:00:00 12.3 6 Sur 13 Este 0 -- -- 27
2019-03-28 10:00:00 10.6 7 Sudeste 15 Sudeste 0 -- -- 37
2019-03-28 09:00:00 8.4 9 Este 16 Este 0 -- -- 43
2019-03-28 08:00:00 5 9 Nordeste 14 Nordeste 0 -- -- 52
2019-03-28 07:00:00 4.3 10 Nordeste 15 Nordeste 0 -- -- 54
2019-03-28 06:00:00 4.9 10 Nordeste 14 Nordeste 0 -- -- 48
2019-03-28 05:00:00 5.8 5 Nordeste 12 Nordeste 0 -- -- 46
2019-03-28 04:00:00 6.4 6 Nordeste 12 Nordeste 0 -- -- 43
2019-03-28 03:00:00 7.5 5 Nordeste 19 Este 0 -- -- 36
2019-03-28 02:00:00 8.8 11 Este 27 Este 0 -- -- 33
2019-03-28 01:00:00 9.7 15 Nordeste 27 Este 0 -- -- 31
2019-03-28 00:00:00 10.5 11 Nordeste 19 Este 0 -- -- 30
2019-03-27 23:00:00 10 6 Nordeste 18 Nordeste 0 -- -- 33
2019-03-27 22:00:00 10.6 11 Nordeste 18 Nordeste 0 -- -- 40
2019-03-27 21:00:00 12.5 4 Noroeste 10 Noroeste 0 -- -- 31
2019-03-27 20:00:00 13.4 4 Oeste 12 Sudoeste 0 -- -- 30
2019-03-27 19:00:00 16.5 6 Sur 12 Sudeste 0 -- -- 25
2019-03-27 18:00:00 17.4 6 Sudeste 17 Sudeste 0 -- -- 22
2019-03-27 17:00:00 17.6 7 Sudeste 20 Sudeste 0 -- -- 22
2019-03-27 16:00:00 17.4 6 Sur 13 Sur 0 -- -- 26
2019-03-27 15:00:00 16.4 6 Sur 15 Sudoeste 0 -- -- 29
2019-03-27 14:00:00 15.2 7 Sudoeste 19 Sudoeste 0 -- -- 33
2019-03-27 13:00:00 13.4 4 Sudoeste 14 Sudoeste 0 -- -- 35
2019-03-27 12:00:00 11.8 4 Este 20 Sudoeste 0 -- -- 37
2019-03-27 11:00:00 10.4 6 Sur 13 Sudoeste 0 -- -- 42
2019-03-27 10:00:00 8.9 3 Sur 10 Sur 0 -- -- 49
2019-03-27 09:00:00 6.4 4 Oeste 6 Oeste 0 -- -- 65
2019-03-27 08:00:00 2.1 0 Calma 3 Nordeste 0 -- -- 64
2019-03-27 07:00:00 2 2 Nordeste 6 Nordeste 0 -- -- 49
2019-03-27 06:00:00 3.2 4 Nordeste 6 Nordeste 0 -- -- 44
2019-03-27 05:00:00 4.4 3 Este 10 Este 0 -- -- 35
2019-03-27 04:00:00 5.4 5 Este 10 Este 0 -- -- 33
2019-03-27 03:00:00 6.6 4 Este 16 Este 0 -- -- 30
2019-03-27 02:00:00 7.7 4 Este 16 Este 0 -- -- 27
2019-03-27 01:00:00 8.9 8 Este 27 Este 0 -- -- 25
2019-03-27 00:00:00 10.3 7 Este 21 Este 0 -- -- 25
2019-03-26 23:00:00 12.2 14 Este 28 Este 0 -- -- 22
2019-03-26 22:00:00 13.2 18 Nordeste 33 Este 0 -- -- 20
2019-03-26 21:00:00 14.2 17 Nordeste 35 Nordeste 0 -- -- 19
2019-03-26 20:00:00 15.1 16 Nordeste 31 Nordeste 0 -- -- 22
2019-03-26 19:00:00 17.5 17 Nordeste 32 Nordeste 0 -- -- 20
2019-03-26 18:00:00 18.9 18 Nordeste 39 Este 0 -- -- 23
2019-03-26 17:00:00 19.6 18 Nordeste 37 Nordeste 0 -- -- 24
2019-03-26 16:00:00 19.4 15 Este 32 Nordeste 0 -- -- 26
2019-03-26 15:00:00 18.3 14 Este 29 Este 0 -- -- 27
2019-03-26 14:00:00 17.5 10 Este 28 Este 0 -- -- 28
2019-03-26 13:00:00 16.7 11 Este 29 Este 0 -- -- 30
2019-03-26 12:00:00 14.9 16 Este 31 Este 0 -- -- 31
2019-03-26 11:00:00 13.3 14 Este 33 Este 0 -- -- 33
2019-03-26 10:00:00 11.5 17 Este 31 Este 0 -- -- 35
2019-03-26 09:00:00 7.2 12 Nordeste 23 Nordeste 0 -- -- 51
2019-03-26 08:00:00 5.2 14 Nordeste 30 Nordeste 0 -- -- 59
2019-03-26 07:00:00 4.3 12 Nordeste 22 Nordeste 0 -- -- 60
2019-03-26 06:00:00 4 12 Nordeste 24 Nordeste 0 -- -- 64
2019-03-26 05:00:00 5.2 12 Nordeste 27 Nordeste 0 -- -- 52
2019-03-26 04:00:00 5.7 15 Nordeste 31 Este 0 -- -- 53
2019-03-26 03:00:00 5.8 12 Nordeste 28 Este 0 -- -- 52
2019-03-26 02:00:00 6.5 11 Este 30 Este 0 -- -- 49
2019-03-26 01:00:00 7.8 8 Este 21 Este 0 -- -- 43
2019-03-26 00:00:00 9 8 Nordeste 14 Este 0 -- -- 42
2019-03-25 23:00:00 10.4 10 Este 28 Nordeste 0 -- -- 35
2019-03-25 22:00:00 12.7 17 Nordeste 34 Nordeste 0 -- -- 30
2019-03-25 21:00:00 14.2 8 Nordeste 22 Nordeste 0 -- -- 37
2019-03-25 20:00:00 15.4 12 Norte 25 Norte 0 -- -- 37
2019-03-25 19:00:00 17.6 15 Nordeste 27 Norte 0 -- -- 32
2019-03-25 18:00:00 19.5 15 Norte 29 Nordeste 0 -- -- 29
2019-03-25 17:00:00 20.6 7 Nordeste 25 Nordeste 0 -- -- 28
2019-03-25 16:00:00 20.7 4 Sudoeste 18 Este 0 -- -- 27
2019-03-25 15:00:00 20 9 Este 22 Nordeste 0 -- -- 28
2019-03-25 14:00:00 19.5 8 Este 21 Sudeste 0 -- -- 28
2019-03-25 13:00:00 18.6 9 Sudeste 18 Sudeste 0 -- -- 30
2019-03-25 12:00:00 17.1 9 Sudeste 22 Sudeste 0 -- -- 31
2019-03-25 11:00:00 15.4 11 Este 29 Este 0 -- -- 34
2019-03-25 10:00:00 13.3 14 Nordeste 28 Este 0 -- -- 40
2019-03-25 09:00:00 10.9 11 Nordeste 18 Nordeste 0 -- -- 46
2019-03-25 08:00:00 8 10 Nordeste 16 Nordeste 0 -- -- 51
2019-03-25 07:00:00 7 11 Nordeste 18 Nordeste 0 -- -- 55
2019-03-25 06:00:00 7.2 8 Nordeste 17 Nordeste 0 -- -- 55
2019-03-25 05:00:00 8.4 8 Nordeste 17 Nordeste 0 -- -- 52
2019-03-25 04:00:00 8.9 6 Nordeste 15 Nordeste 0 -- -- 51
2019-03-25 03:00:00 9.3 6 Nordeste 14 Nordeste 0 -- -- 47
2019-03-25 02:00:00 9.1 7 Nordeste 14 Nordeste 0 -- -- 47
2019-03-25 01:00:00 9.6 5 Este 8 Este 0 -- -- 46
2019-03-25 00:00:00 10.3 7 Este 9 Nordeste 0 -- -- 43